Hoisington, Kansas
Current Conditions -  °F | °C
As of 4:15 AM on Sunday 25 Jan 2015 (Local Time) from KGBD Reporting Station
Few Clouds Few Clouds  
Wind Chill: 34°   Ceiling: Unl
Heat Index: 43°   Visibility: 10mi
Dew Point: 27°   Wind: 20mph
Humidity: 53%   Direction: 310°NW
Pressure: 29.94"   Gusts: 25mph
Location:  38.52°N, 98.78°W
Report Text: KGBD 251015Z AUTO 31017G22KT 10SM FEW049 06/M03 A2994 RMK AO1
Loading
Personal Weather Stations






























Interactive Weather Map New forecast layout! Learn more

10-Day Weather Forecast

Advertisements
Track Severe Weather on mobile